createdAt,value
2022-12-28T00:01:43.765Z,98217.00
2022-12-28T00:04:13.459Z,98216.69
2022-12-28T00:06:40.276Z,98210.97
2022-12-28T00:09:06.977Z,98204.22
2022-12-28T00:11:33.769Z,98231.75
2022-12-28T00:14:01.469Z,98235.72
2022-12-28T00:16:32.343Z,98240.94
2022-12-28T00:19:00.960Z,98226.88
2022-12-28T00:21:28.589Z,98245.59
2022-12-28T00:23:58.000Z,98248.88
2022-12-28T00:26:26.928Z,98251.22
2022-12-28T00:28:58.295Z,98257.44
2022-12-28T00:31:27.075Z,98260.16
2022-12-28T00:33:54.163Z,98258.97
2022-12-28T00:36:20.973Z,98261.41
2022-12-28T00:38:47.717Z,98260.69
2022-12-28T00:41:14.451Z,98272.03
2022-12-28T00:43:41.526Z,98253.81
2022-12-28T00:46:09.358Z,98270.06
2022-12-28T00:48:36.138Z,98263.34
2022-12-28T00:51:14.376Z,98273.13
2022-12-28T00:53:42.075Z,98271.34
2022-12-28T00:56:12.554Z,98270.94
2022-12-28T00:58:39.589Z,98284.44
2022-12-28T01:01:12.008Z,98295.56
2022-12-28T01:03:39.297Z,98276.94
2022-12-28T01:06:07.369Z,98287.63
2022-12-28T01:08:35.488Z,98303.81
2022-12-28T01:11:08.776Z,98302.47
2022-12-28T01:13:36.368Z,98292.00
2022-12-28T01:16:35.213Z,98300.75
2022-12-28T01:19:04.857Z,98303.81
2022-12-28T01:21:33.739Z,98306.09
2022-12-28T01:24:03.310Z,98299.75
2022-12-28T01:26:30.517Z,98287.63
2022-12-28T01:28:58.674Z,98301.50
2022-12-28T01:31:26.456Z,98298.97
2022-12-28T01:33:54.311Z,98290.34
2022-12-28T01:36:23.899Z,98299.28
2022-12-28T01:38:56.802Z,98297.59
2022-12-28T01:41:25.512Z,98297.78
2022-12-28T01:43:52.374Z,98309.66
2022-12-28T01:46:40.389Z,98305.00
2022-12-28T01:49:22.525Z,98305.34
2022-12-28T01:52:12.787Z,98295.59
2022-12-28T01:55:07.569Z,98305.72
2022-12-28T01:57:45.717Z,98312.88
2022-12-28T02:00:15.427Z,98309.59
2022-12-28T02:02:49.570Z,98305.72
2022-12-28T02:05:18.542Z,98306.41
2022-12-28T02:07:53.671Z,98290.72
2022-12-28T02:10:40.760Z,98306.88
2022-12-28T02:13:10.426Z,98308.16
2022-12-28T02:15:37.440Z,98303.94
2022-12-28T02:18:04.542Z,98312.09
2022-12-28T02:20:44.501Z,98306.50
2022-12-28T02:23:20.369Z,98309.53
2022-12-28T02:25:50.575Z,98316.09
2022-12-28T02:28:29.393Z,98311.97
2022-12-28T02:31:38.912Z,98314.31
2022-12-28T02:34:16.758Z,98315.25
2022-12-28T02:36:51.656Z,98307.69
2022-12-28T02:39:26.652Z,98312.56
2022-12-28T02:41:55.728Z,98304.81
2022-12-28T02:44:42.367Z,98284.75
2022-12-28T02:47:33.645Z,98298.94
2022-12-28T02:50:06.918Z,98307.19
2022-12-28T02:53:21.477Z,98302.38
2022-12-28T02:56:09.274Z,98307.94
2022-12-28T02:58:38.970Z,98318.47
2022-12-28T03:01:40.103Z,98310.63
2022-12-28T03:04:19.161Z,98312.41
2022-12-28T03:07:10.886Z,98318.47
2022-12-28T03:09:42.191Z,98316.50
2022-12-28T03:12:29.716Z,98306.94
2022-12-28T03:15:30.908Z,98316.75
2022-12-28T03:18:30.809Z,98305.09
2022-12-28T03:21:21.661Z,98328.88
2022-12-28T03:24:08.680Z,98314.47
2022-12-28T03:26:58.811Z,98319.81
2022-12-28T03:29:46.184Z,98321.47
2022-12-28T03:32:13.773Z,98335.47
2022-12-28T03:34:41.158Z,98329.63
2022-12-28T03:37:18.683Z,98337.03
2022-12-28T03:39:53.304Z,98335.50
2022-12-28T03:42:55.445Z,98339.78
2022-12-28T03:46:19.653Z,98336.97
2022-12-28T03:48:48.507Z,98324.19
2022-12-28T03:51:19.844Z,98334.31
2022-12-28T03:53:48.001Z,98339.31
2022-12-28T03:56:21.328Z,98324.63
2022-12-28T03:58:49.263Z,98335.47
2022-12-28T04:01:16.210Z,98329.69
2022-12-28T04:03:45.355Z,98326.34
2022-12-28T04:06:18.420Z,98341.84
2022-12-28T04:08:46.266Z,98349.03
2022-12-28T04:11:14.111Z,98350.34
2022-12-28T04:13:41.402Z,98348.97
2022-12-28T04:16:12.348Z,98360.38
2022-12-28T04:18:39.963Z,98360.75
2022-12-28T04:21:06.949Z,98361.28
2022-12-28T04:23:34.810Z,98354.44
2022-12-28T04:26:11.815Z,98358.06
2022-12-28T04:28:39.202Z,98345.69
2022-12-28T04:31:08.079Z,98339.91
2022-12-28T04:33:37.045Z,98347.31
2022-12-28T04:36:09.480Z,98348.50
2022-12-28T04:38:37.162Z,98341.84
2022-12-28T04:41:06.138Z,98346.13
2022-12-28T04:43:34.510Z,98338.31
2022-12-28T04:46:04.695Z,98350.28
2022-12-28T04:48:32.539Z,98348.88
2022-12-28T04:50:59.662Z,98352.28
2022-12-28T04:53:26.735Z,98353.31
2022-12-28T04:55:54.049Z,98369.66
2022-12-28T04:58:20.742Z,98367.34
2022-12-28T05:00:47.719Z,98357.41
2022-12-28T05:03:17.502Z,98357.53
2022-12-28T05:05:44.284Z,98367.06
2022-12-28T05:08:11.047Z,98353.38
2022-12-28T05:10:37.844Z,98354.03
2022-12-28T05:13:04.599Z,98351.50
2022-12-28T05:15:31.400Z,98348.97
2022-12-28T05:17:58.229Z,98351.63
2022-12-28T05:20:24.989Z,98359.25
2022-12-28T05:22:51.825Z,98338.06
2022-12-28T05:25:18.546Z,98354.22
2022-12-28T05:27:45.404Z,98355.84
2022-12-28T05:30:12.364Z,98365.31
2022-12-28T05:32:39.161Z,98343.19
2022-12-28T05:35:06.308Z,98360.63
2022-12-28T05:37:33.191Z,98361.63
2022-12-28T05:39:59.935Z,98332.63
2022-12-28T05:42:26.806Z,98359.06
2022-12-28T05:44:53.398Z,98354.88
2022-12-28T05:47:20.410Z,98367.81
2022-12-28T05:49:47.730Z,98366.72
2022-12-28T05:52:14.456Z,98383.31
2022-12-28T05:54:41.135Z,98381.81
2022-12-28T05:57:08.131Z,98364.25
2022-12-28T05:59:35.124Z,98381.88
2022-12-28T06:02:02.227Z,98367.66
2022-12-28T06:04:29.078Z,98380.91
2022-12-28T06:06:55.826Z,98378.78
2022-12-28T06:09:22.608Z,98381.31
2022-12-28T06:11:49.303Z,98384.97
2022-12-28T06:14:15.969Z,98395.13
2022-12-28T06:16:43.472Z,98404.06
2022-12-28T06:19:12.771Z,98403.41
2022-12-28T06:21:40.372Z,98401.75
2022-12-28T06:24:08.254Z,98400.16
2022-12-28T06:26:36.386Z,98395.25
2022-12-28T06:29:03.702Z,98407.66
2022-12-28T06:31:33.618Z,98411.16
2022-12-28T06:34:04.470Z,98413.41
2022-12-28T06:36:40.732Z,98415.13
2022-12-28T06:39:09.968Z,98414.13
2022-12-28T06:41:37.589Z,98411.34
2022-12-28T06:44:12.402Z,98421.59
2022-12-28T06:46:39.740Z,98420.63
2022-12-28T06:49:06.714Z,98430.91
2022-12-28T06:51:42.454Z,98427.25
2022-12-28T06:54:10.695Z,98422.47
2022-12-28T06:56:37.934Z,98415.56
2022-12-28T06:59:05.399Z,98420.63
2022-12-28T07:01:41.116Z,98412.06
2022-12-28T07:04:09.473Z,98422.19
2022-12-28T07:06:41.585Z,98434.94
2022-12-28T07:09:13.568Z,98431.91
2022-12-28T07:11:41.216Z,98413.16
2022-12-28T07:14:07.909Z,98412.31
2022-12-28T07:19:00.869Z,98420.78
2022-12-28T07:21:32.904Z,98437.50
2022-12-28T07:24:00.078Z,98409.72
2022-12-28T07:26:29.802Z,98437.13
2022-12-28T07:28:58.441Z,98423.03
2022-12-28T07:31:28.997Z,98437.78
2022-12-28T07:33:57.854Z,98436.72
2022-12-28T07:36:26.067Z,98437.31
2022-12-28T07:38:53.285Z,98440.84
2022-12-28T07:41:22.822Z,98433.38
2022-12-28T07:43:49.680Z,98439.22
2022-12-28T07:46:25.268Z,98403.53
2022-12-28T07:48:53.103Z,98436.81
2022-12-28T07:51:22.553Z,98438.19
2022-12-28T07:53:51.562Z,98434.47
2022-12-28T07:56:19.431Z,98437.09
2022-12-28T07:58:55.440Z,98439.28
2022-12-28T08:01:23.888Z,98437.47
2022-12-28T08:03:55.550Z,98441.16
2022-12-28T08:06:23.624Z,98440.41
2022-12-28T08:08:51.366Z,98450.03
2022-12-28T08:11:19.143Z,98447.09
2022-12-28T08:13:46.629Z,98439.91
2022-12-28T08:16:15.264Z,98420.91
2022-12-28T08:18:42.762Z,98437.41
2022-12-28T08:21:16.566Z,98448.91
2022-12-28T08:23:43.932Z,98438.25
2022-12-28T08:26:14.919Z,98445.22
2022-12-28T08:28:43.491Z,98447.59
2022-12-28T08:31:13.600Z,98424.47
2022-12-28T08:33:40.461Z,98426.47
2022-12-28T08:36:09.225Z,98436.31
2022-12-28T08:38:37.716Z,98427.53
2022-12-28T08:41:07.063Z,98430.16
2022-12-28T08:43:34.820Z,98428.38
2022-12-28T08:46:07.960Z,98428.84
2022-12-28T08:48:35.451Z,98401.16
2022-12-28T08:51:11.088Z,98410.41
2022-12-28T08:53:38.836Z,98408.81
2022-12-28T08:56:10.482Z,98421.75
2022-12-28T08:58:38.463Z,98384.47
2022-12-28T09:01:13.267Z,98405.63
2022-12-28T09:03:42.570Z,98393.84
2022-12-28T09:06:12.684Z,98397.75
2022-12-28T09:08:42.317Z,98401.16
2022-12-28T09:11:13.448Z,98373.31
2022-12-28T09:13:40.939Z,98395.66
2022-12-28T09:16:13.732Z,98386.50
2022-12-28T09:18:42.195Z,98383.44
2022-12-28T09:21:37.923Z,98363.84
2022-12-28T09:24:06.461Z,98389.75
2022-12-28T09:26:36.775Z,98386.88
2022-12-28T09:29:42.241Z,98380.03
2022-12-28T09:32:13.840Z,98384.63
2022-12-28T09:34:47.615Z,98351.84
2022-12-28T09:37:14.577Z,98358.00
2022-12-28T09:39:41.433Z,98348.38
2022-12-28T09:42:37.895Z,98340.19
2022-12-28T09:45:13.729Z,98338.00
2022-12-28T09:47:44.579Z,98321.72
2022-12-28T09:50:17.459Z,98342.47
2022-12-28T09:53:22.010Z,98334.59
2022-12-28T09:55:57.757Z,98331.13
2022-12-28T09:58:25.130Z,98323.06
2022-12-28T10:00:56.116Z,98318.75
2022-12-28T10:03:23.182Z,98336.09
2022-12-28T10:05:52.325Z,98336.31
2022-12-28T10:08:21.849Z,98312.75
2022-12-28T10:10:50.508Z,98308.84
2022-12-28T10:13:45.931Z,98319.69
2022-12-28T10:16:17.923Z,98292.66
2022-12-28T10:18:45.566Z,98323.06
2022-12-28T10:21:20.400Z,98311.69
2022-12-28T10:24:29.858Z,98315.97
2022-12-28T10:26:47.154Z,98285.19
2022-12-28T10:29:19.194Z,98317.25
2022-12-28T10:32:06.834Z,98312.94
2022-12-28T10:34:36.149Z,98303.28
2022-12-28T10:40:06.779Z,98321.38
2022-12-28T10:42:42.773Z,98315.91
2022-12-28T10:45:21.868Z,98320.03
2022-12-28T10:47:54.775Z,98311.09
2022-12-28T10:50:45.187Z,98312.78
2022-12-28T10:53:29.784Z,98302.25
2022-12-28T10:56:21.765Z,98295.53
2022-12-28T10:58:53.631Z,98290.47
2022-12-28T11:01:27.157Z,98294.06
2022-12-28T11:03:20.624Z,98316.84
2022-12-28T11:03:57.077Z,98297.22
2022-12-28T11:06:30.773Z,98281.44
2022-12-28T11:09:06.834Z,98290.47
2022-12-28T11:11:36.190Z,98291.22
2022-12-28T11:14:24.126Z,98281.22
2022-12-28T11:16:51.417Z,98291.75
2022-12-28T11:19:18.827Z,98268.41
2022-12-28T11:21:46.190Z,98261.91
2022-12-28T11:24:17.978Z,98277.25
2022-12-28T11:26:49.392Z,98269.69
2022-12-28T11:29:18.399Z,98266.31
2022-12-28T11:31:51.962Z,98269.25
2022-12-28T11:34:23.558Z,98296.38
2022-12-28T11:36:50.795Z,98275.56
2022-12-28T11:39:26.656Z,98294.38
2022-12-28T11:44:42.014Z,98282.09
2022-12-28T11:47:33.239Z,98288.59
2022-12-28T11:50:34.237Z,98288.16
2022-12-28T11:53:02.246Z,98278.31
2022-12-28T11:55:43.140Z,98279.03
2022-12-28T11:58:31.866Z,98281.66
2022-12-28T12:01:00.264Z,98276.59
2022-12-28T12:03:58.172Z,98270.75
2022-12-28T12:06:45.256Z,98264.31
2022-12-28T12:09:21.264Z,98272.22
2022-12-28T12:11:50.364Z,98266.63
2022-12-28T12:14:23.605Z,98247.47
2022-12-28T12:16:54.038Z,98255.78
2022-12-28T12:19:25.762Z,98245.91
2022-12-28T12:22:18.830Z,98255.31
2022-12-28T12:24:55.373Z,98251.97
2022-12-28T12:27:47.585Z,98257.31
2022-12-28T12:30:17.504Z,98239.53
2022-12-28T12:32:56.560Z,98247.50
2022-12-28T12:35:29.711Z,98247.81
2022-12-28T12:38:01.261Z,98229.00
2022-12-28T12:40:55.497Z,98244.09
2022-12-28T12:43:47.056Z,98241.59
2022-12-28T12:46:35.552Z,98239.06
2022-12-28T12:49:30.217Z,98235.09
2022-12-28T12:52:12.623Z,98239.75
2022-12-28T12:54:39.221Z,98242.72
2022-12-28T12:57:18.383Z,98231.88
2022-12-28T12:59:45.273Z,98234.50
2022-12-28T13:02:12.376Z,98226.75
2022-12-28T13:04:46.281Z,98236.09
2022-12-28T13:07:27.805Z,98221.06
2022-12-28T13:09:58.984Z,98218.09
2022-12-28T13:12:25.889Z,98222.38
2022-12-28T13:15:17.165Z,98205.09
2022-12-28T13:18:43.106Z,98221.75
2022-12-28T13:20:58.410Z,98222.94
2022-12-28T13:23:27.228Z,98215.16
2022-12-28T13:25:56.651Z,98216.66
2022-12-28T13:28:36.084Z,98220.22
2022-12-28T13:31:25.833Z,98217.28
2022-12-28T13:34:02.494Z,98216.22
2022-12-28T13:36:29.458Z,98220.44
2022-12-28T13:39:11.794Z,98215.38
2022-12-28T13:41:47.225Z,98212.00
2022-12-28T13:44:32.596Z,98218.09
2022-12-28T13:47:20.737Z,98221.81
2022-12-28T13:49:51.426Z,98219.81
2022-12-28T13:52:27.222Z,98216.91
2022-12-28T13:55:00.121Z,98221.19
2022-12-28T13:57:50.068Z,98224.56
2022-12-28T14:00:20.046Z,98222.16
2022-12-28T14:02:48.582Z,98220.50
2022-12-28T14:05:18.751Z,98223.41
2022-12-28T14:07:47.555Z,98236.25
2022-12-28T14:10:15.625Z,98218.44
2022-12-28T14:12:50.650Z,98240.06
2022-12-28T14:15:18.636Z,98229.88
2022-12-28T14:17:46.838Z,98223.88
2022-12-28T14:20:14.130Z,98224.91
2022-12-28T14:22:41.787Z,98232.47
2022-12-28T14:25:15.304Z,98238.97
2022-12-28T14:27:46.820Z,98233.50
2022-12-28T14:30:32.929Z,98231.47
2022-12-28T14:33:11.555Z,98225.38
2022-12-28T14:35:52.971Z,98243.75
2022-12-28T14:38:23.082Z,98244.09
2022-12-28T14:40:55.586Z,98255.19
2022-12-28T14:43:28.882Z,98242.69
2022-12-28T14:46:07.718Z,98243.63
2022-12-28T14:48:43.139Z,98256.72
2022-12-28T14:51:17.487Z,98267.25
2022-12-28T14:53:45.575Z,98254.41
2022-12-28T14:56:19.935Z,98248.75
2022-12-28T14:58:54.845Z,98265.50
2022-12-28T15:01:22.907Z,98261.47
2022-12-28T15:04:00.695Z,98254.38
2022-12-28T15:06:29.956Z,98263.19
2022-12-28T15:08:59.090Z,98248.47
2022-12-28T15:11:28.700Z,98249.97
2022-12-28T15:13:57.778Z,98261.28
2022-12-28T15:16:24.871Z,98259.25
2022-12-28T15:18:53.130Z,98255.16
2022-12-28T15:21:23.709Z,98251.59
2022-12-28T15:23:52.364Z,98254.09
2022-12-28T15:26:20.333Z,98257.00
2022-12-28T15:28:47.427Z,98257.38
2022-12-28T15:31:18.197Z,98250.19
2022-12-28T15:33:45.803Z,98249.75
2022-12-28T15:36:17.835Z,98244.31
2022-12-28T15:38:46.674Z,98241.69
2022-12-28T15:41:32.462Z,98242.25
2022-12-28T15:43:59.322Z,98252.06
2022-12-28T15:46:26.117Z,98252.44
2022-12-28T15:48:53.607Z,98255.34
2022-12-28T15:51:20.540Z,98253.00
2022-12-28T15:53:47.513Z,98259.44
2022-12-28T15:56:34.903Z,98256.25
2022-12-28T15:59:03.851Z,98242.22
2022-12-28T16:01:35.042Z,98246.72
2022-12-28T16:04:03.654Z,98245.22
2022-12-28T16:06:35.917Z,98250.69
2022-12-28T16:09:08.678Z,98262.09
2022-12-28T16:11:35.728Z,98253.03
2022-12-28T16:14:04.709Z,98274.50
2022-12-28T16:16:35.656Z,98267.63
2022-12-28T16:19:03.308Z,98256.09
2022-12-28T16:21:30.904Z,98262.25
2022-12-28T16:23:59.999Z,98261.69
2022-12-28T16:26:27.583Z,98250.25
2022-12-28T16:28:55.084Z,98258.81
2022-12-28T16:31:34.631Z,98257.97
2022-12-28T16:34:07.198Z,98253.97
2022-12-28T16:36:35.898Z,98246.44
2022-12-28T16:39:06.434Z,98261.47
2022-12-28T16:41:37.337Z,98268.63
2022-12-28T16:44:13.037Z,98260.88
2022-12-28T16:46:39.998Z,98270.69
2022-12-28T16:49:07.322Z,98269.19
2022-12-28T16:51:34.229Z,98250.22
2022-12-28T16:54:01.141Z,98245.53
2022-12-28T16:56:28.187Z,98252.41
2022-12-28T16:58:57.918Z,98259.00
2022-12-28T17:01:25.530Z,98259.94
2022-12-28T17:03:52.631Z,98262.38
2022-12-28T17:06:19.979Z,98252.09
2022-12-28T17:08:47.480Z,98237.28
2022-12-28T17:11:15.007Z,98256.13
2022-12-28T17:13:42.175Z,98256.13
2022-12-28T17:16:09.304Z,98250.75
2022-12-28T17:18:40.388Z,98248.88
2022-12-28T17:21:10.555Z,98251.75
2022-12-28T17:23:43.372Z,98239.94
2022-12-28T17:26:10.705Z,98248.03
2022-12-28T17:28:39.432Z,98247.19
2022-12-28T17:31:10.645Z,98263.09
2022-12-28T17:33:40.065Z,98259.13
2022-12-28T17:36:08.847Z,98248.50
2022-12-28T17:38:36.944Z,98252.28
2022-12-28T17:41:13.233Z,98254.56
2022-12-28T17:43:47.850Z,98227.72
2022-12-28T17:46:18.935Z,98254.81
2022-12-28T17:48:46.805Z,98240.41
2022-12-28T17:51:14.575Z,98240.97
2022-12-28T17:53:41.900Z,98249.31
2022-12-28T17:56:12.637Z,98246.13
2022-12-28T17:58:41.693Z,98248.09
2022-12-28T18:01:09.371Z,98260.69
2022-12-28T18:03:38.565Z,98249.16
2022-12-28T18:06:06.258Z,98256.22
2022-12-28T18:08:33.731Z,98261.69
2022-12-28T18:11:00.662Z,98260.19
2022-12-28T18:13:27.840Z,98265.56
2022-12-28T18:15:54.980Z,98248.34
2022-12-28T18:18:22.647Z,98263.50
2022-12-28T18:21:00.384Z,98248.59
2022-12-28T18:23:28.443Z,98269.00
2022-12-28T18:26:08.992Z,98264.50
2022-12-28T18:28:36.753Z,98262.84
2022-12-28T18:31:05.583Z,98262.84
2022-12-28T18:33:34.487Z,98267.19
2022-12-28T18:36:08.066Z,98265.09
2022-12-28T18:38:40.529Z,98271.22
2022-12-28T18:41:07.312Z,98277.88
2022-12-28T18:43:35.392Z,98280.13
2022-12-28T18:46:03.377Z,98287.34
2022-12-28T18:48:31.004Z,98272.66
2022-12-28T18:51:03.963Z,98278.69
2022-12-28T18:53:31.606Z,98272.56
2022-12-28T18:56:06.325Z,98281.31
2022-12-28T18:58:35.843Z,98280.81
2022-12-28T19:01:55.346Z,98283.06
2022-12-28T19:04:07.750Z,98271.38
2022-12-28T19:06:35.329Z,98281.78
2022-12-28T19:09:03.969Z,98277.44
2022-12-28T19:11:31.165Z,98288.69
2022-12-28T19:13:57.915Z,98271.66
2022-12-28T19:16:30.916Z,98281.78
2022-12-28T19:18:59.172Z,98274.91
2022-12-28T19:21:30.719Z,98276.72
2022-12-28T19:24:00.826Z,98275.19
2022-12-28T19:26:27.666Z,98273.22
2022-12-28T19:28:54.559Z,98275.03
2022-12-28T19:31:21.592Z,98275.25
2022-12-28T19:33:48.405Z,98264.50
2022-12-28T19:36:15.336Z,98272.44
2022-12-28T19:38:42.408Z,98269.22
2022-12-28T19:41:11.700Z,98273.22
2022-12-28T19:43:38.601Z,98270.47
2022-12-28T19:46:08.749Z,98263.88
2022-12-28T19:48:35.681Z,98260.59
2022-12-28T19:51:02.610Z,98271.34
2022-12-28T19:53:29.645Z,98271.53
2022-12-28T19:56:12.657Z,98272.22
2022-12-28T19:58:40.375Z,98274.81
2022-12-28T20:01:10.980Z,98272.38
2022-12-28T20:03:38.768Z,98267.16
2022-12-28T20:06:29.908Z,98274.81
2022-12-28T20:09:01.249Z,98271.25
2022-12-28T20:11:29.792Z,98273.94
2022-12-28T20:13:59.607Z,98273.84
2022-12-28T20:16:29.398Z,98271.13
2022-12-28T20:18:56.325Z,98276.19
2022-12-28T20:21:25.171Z,98248.63
2022-12-28T20:23:53.427Z,98252.13
2022-12-28T20:26:22.690Z,98264.50
2022-12-28T20:28:51.047Z,98256.47
2022-12-28T20:31:18.391Z,98246.91
2022-12-28T20:33:46.332Z,98256.63
2022-12-28T20:36:16.239Z,98248.19
2022-12-28T20:38:43.339Z,98259.94
2022-12-28T20:41:35.451Z,98255.78
2022-12-28T20:44:07.212Z,98254.34
2022-12-28T20:46:34.353Z,98254.34
2022-12-28T20:49:01.335Z,98263.09
2022-12-28T20:51:28.455Z,98265.81
2022-12-28T20:53:55.531Z,98265.31
2022-12-28T20:56:25.243Z,98264.97
2022-12-28T20:58:52.184Z,98262.22
2022-12-28T21:01:19.485Z,98262.47
2022-12-28T21:03:47.052Z,98255.59
2022-12-28T21:06:14.152Z,98252.06
2022-12-28T21:08:41.106Z,98254.03
2022-12-28T21:11:08.132Z,98257.31
2022-12-28T21:13:39.286Z,98258.13
2022-12-28T21:16:09.744Z,98251.16
2022-12-28T21:18:37.061Z,98258.69
2022-12-28T21:21:04.367Z,98247.25
2022-12-28T21:23:32.149Z,98253.28
2022-12-28T21:26:03.828Z,98262.72
2022-12-28T21:28:31.316Z,98249.63
2022-12-28T21:30:58.522Z,98247.47
2022-12-28T21:33:25.549Z,98249.41
2022-12-28T21:36:07.375Z,98260.53
2022-12-28T21:38:38.256Z,98262.97
2022-12-28T21:41:11.045Z,98259.56
2022-12-28T21:43:37.992Z,98251.72
2022-12-28T21:46:11.295Z,98254.34
2022-12-28T21:48:38.901Z,98256.91
2022-12-28T21:51:31.638Z,98258.38
2022-12-28T21:54:00.226Z,98241.00
2022-12-28T21:56:27.795Z,98240.28
2022-12-28T21:58:57.630Z,98245.31
2022-12-28T22:01:43.570Z,98240.81
2022-12-28T22:04:34.332Z,98237.22
2022-12-28T22:07:01.235Z,98231.16
2022-12-28T22:09:46.647Z,98231.44
2022-12-28T22:12:34.169Z,98230.31
2022-12-28T22:15:39.911Z,98228.91
2022-12-28T22:18:44.520Z,98219.78
2022-12-28T22:21:05.542Z,98214.72
2022-12-28T22:23:34.805Z,98213.00
2022-12-28T22:26:01.844Z,98213.78
2022-12-28T22:28:28.718Z,98221.47
2022-12-28T22:30:56.341Z,98219.63
2022-12-28T22:33:23.220Z,98216.31
2022-12-28T22:35:50.584Z,98211.44
2022-12-28T22:38:17.511Z,98206.97
2022-12-28T22:40:44.748Z,98209.03
2022-12-28T22:43:11.480Z,98199.81
2022-12-28T22:45:38.492Z,98201.28
2022-12-28T22:48:05.747Z,98202.31
2022-12-28T22:50:35.720Z,98185.38
2022-12-28T22:53:05.195Z,98195.72
2022-12-28T22:55:32.244Z,98196.63
2022-12-28T22:58:02.063Z,98189.88
2022-12-28T23:00:28.916Z,98193.06
2022-12-28T23:02:56.017Z,98191.28
2022-12-28T23:05:22.878Z,98186.22
2022-12-28T23:07:49.979Z,98168.28
2022-12-28T23:10:17.003Z,98166.88
2022-12-28T23:12:44.022Z,98173.13
2022-12-28T23:15:19.083Z,98168.91
2022-12-28T23:17:48.649Z,98167.88
2022-12-28T23:20:34.082Z,98161.69
2022-12-28T23:23:19.937Z,98159.88
2022-12-28T23:26:05.654Z,98161.19
2022-12-28T23:28:36.154Z,98166.38
2022-12-28T23:31:03.853Z,98169.00
2022-12-28T23:33:31.574Z,98169.13
2022-12-28T23:36:02.802Z,98158.31
2022-12-28T23:38:31.539Z,98170.53
2022-12-28T23:41:16.710Z,98166.59
2022-12-28T23:43:43.668Z,98166.13
2022-12-28T23:46:10.531Z,98167.09
2022-12-28T23:48:37.510Z,98161.91
2022-12-28T23:51:11.408Z,98151.41
2022-12-28T23:53:38.223Z,98154.41
2022-12-28T23:56:05.291Z,98152.72
2022-12-28T23:58:32.281Z,98160.84
